sensor_id;sensor_type;location;lat;lon;timestamp;pressure;altitude;pressure_sealevel;temperature;humidity
13695;BME280;6919;52.344;14.518;2023-04-15T00:00:57;99743.78;;;9.66;100.00
13695;BME280;6919;52.344;14.518;2023-04-15T00:03:26;99738.78;;;9.71;100.00
13695;BME280;6919;52.344;14.518;2023-04-15T00:05:54;99736.56;;;9.75;100.00
13695;BME280;6919;52.344;14.518;2023-04-15T00:08:23;99740.09;;;9.75;100.00
13695;BME280;6919;52.344;14.518;2023-04-15T00:10:52;99736.88;;;9.80;100.00
13695;BME280;6919;52.344;14.518;2023-04-15T00:13:20;99738.41;;;9.82;100.00
13695;BME280;6919;52.344;14.518;2023-04-15T00:15:48;99730.56;;;9.81;100.00
13695;BME280;6919;52.344;14.518;2023-04-15T00:18:18;99737.56;;;9.82;100.00
13695;BME280;6919;52.344;14.518;2023-04-15T00:20:46;99728.53;;;9.75;100.00
13695;BME280;6919;52.344;14.518;2023-04-15T00:23:15;99731.25;;;9.67;100.00
13695;BME280;6919;52.344;14.518;2023-04-15T00:25:43;99727.06;;;9.72;100.00
13695;BME280;6919;52.344;14.518;2023-04-15T00:28:12;99732.06;;;9.67;100.00
13695;BME280;6919;52.344;14.518;2023-04-15T00:30:40;99727.72;;;9.66;100.00
13695;BME280;6919;52.344;14.518;2023-04-15T00:33:09;99729.38;;;9.67;100.00
13695;BME280;6919;52.344;14.518;2023-04-15T00:35:38;99731.06;;;9.68;100.00
13695;BME280;6919;52.344;14.518;2023-04-15T00:38:07;99728.22;;;9.70;100.00
13695;BME280;6919;52.344;14.518;2023-04-15T00:40:36;99727.69;;;9.74;100.00
13695;BME280;6919;52.344;14.518;2023-04-15T00:43:04;99731.75;;;9.78;100.00
13695;BME280;6919;52.344;14.518;2023-04-15T00:45:33;99730.88;;;9.86;100.00
13695;BME280;6919;52.344;14.518;2023-04-15T00:48:01;99727.50;;;9.92;100.00
13695;BME280;6919;52.344;14.518;2023-04-15T00:50:30;99720.13;;;9.94;100.00
13695;BME280;6919;52.344;14.518;2023-04-15T00:53:00;99724.00;;;9.83;100.00
13695;BME280;6919;52.344;14.518;2023-04-15T00:55:28;99718.31;;;9.86;100.00
13695;BME280;6919;52.344;14.518;2023-04-15T00:57:56;99715.31;;;9.89;100.00
13695;BME280;6919;52.344;14.518;2023-04-15T01:00:25;99714.63;;;9.87;100.00
13695;BME280;6919;52.344;14.518;2023-04-15T01:02:53;99715.09;;;9.99;100.00
13695;BME280;6919;52.344;14.518;2023-04-15T01:05:22;99719.81;;;9.89;100.00
13695;BME280;6919;52.344;14.518;2023-04-15T01:07:50;99718.63;;;10.07;100.00
13695;BME280;6919;52.344;14.518;2023-04-15T01:10:20;99715.47;;;9.88;100.00
13695;BME280;6919;52.344;14.518;2023-04-15T01:12:48;99716.94;;;9.98;100.00
13695;BME280;6919;52.344;14.518;2023-04-15T01:15:17;99719.09;;;10.03;100.00
13695;BME280;6919;52.344;14.518;2023-04-15T01:17:45;99719.44;;;10.00;100.00
13695;BME280;6919;52.344;14.518;2023-04-15T01:20:14;99714.94;;;10.00;100.00
13695;BME280;6919;52.344;14.518;2023-04-15T01:22:45;99719.97;;;10.03;100.00
13695;BME280;6919;52.344;14.518;2023-04-15T01:25:26;99717.28;;;10.03;100.00
13695;BME280;6919;52.344;14.518;2023-04-15T01:27:56;99720.59;;;10.05;100.00
13695;BME280;6919;52.344;14.518;2023-04-15T01:30:25;99718.94;;;10.12;100.00
13695;BME280;6919;52.344;14.518;2023-04-15T01:32:56;99714.22;;;10.22;100.00
13695;BME280;6919;52.344;14.518;2023-04-15T01:35:26;99718.25;;;10.18;100.00
13695;BME280;6919;52.344;14.518;2023-04-15T01:38:04;99715.72;;;10.25;100.00
13695;BME280;6919;52.344;14.518;2023-04-15T01:40:46;99707.31;;;10.28;100.00
13695;BME280;6919;52.344;14.518;2023-04-15T01:43:14;99709.69;;;10.23;100.00
13695;BME280;6919;52.344;14.518;2023-04-15T01:45:43;99707.66;;;10.25;100.00
13695;BME280;6919;52.344;14.518;2023-04-15T01:48:11;99707.31;;;10.28;100.00
13695;BME280;6919;52.344;14.518;2023-04-15T01:50:39;99704.47;;;10.29;100.00
13695;BME280;6919;52.344;14.518;2023-04-15T01:53:08;99700.81;;;10.22;100.00
13695;BME280;6919;52.344;14.518;2023-04-15T01:55:36;99698.44;;;10.27;100.00
13695;BME280;6919;52.344;14.518;2023-04-15T01:58:06;99702.31;;;10.25;100.00
13695;BME280;6919;52.344;14.518;2023-04-15T02:00:34;99706.47;;;10.27;100.00
13695;BME280;6919;52.344;14.518;2023-04-15T02:03:03;99702.31;;;10.25;100.00
13695;BME280;6919;52.344;14.518;2023-04-15T02:05:32;99707.66;;;10.25;100.00
13695;BME280;6919;52.344;14.518;2023-04-15T02:08:00;99705.84;;;10.25;100.00
13695;BME280;6919;52.344;14.518;2023-04-15T02:10:29;99702.47;;;10.23;100.00
13695;BME280;6919;52.344;14.518;2023-04-15T02:12:57;99706.31;;;10.29;100.00
13695;BME280;6919;52.344;14.518;2023-04-15T02:15:27;99706.81;;;10.32;100.00
13695;BME280;6919;52.344;14.518;2023-04-15T02:17:56;99704.44;;;10.37;100.00
13695;BME280;6919;52.344;14.518;2023-04-15T02:20:26;99704.59;;;10.44;100.00
13695;BME280;6919;52.344;14.518;2023-04-15T02:22:56;99701.00;;;10.51;100.00
13695;BME280;6919;52.344;14.518;2023-04-15T02:25:24;99704.75;;;10.73;100.00
13695;BME280;6919;52.344;14.518;2023-04-15T02:27:53;99694.56;;;10.68;100.00
13695;BME280;6919;52.344;14.518;2023-04-15T02:30:21;99690.03;;;10.69;100.00
13695;BME280;6919;52.344;14.518;2023-04-15T02:32:52;99685.81;;;10.74;100.00
13695;BME280;6919;52.344;14.518;2023-04-15T02:35:22;99684.50;;;10.70;100.00
13695;BME280;6919;52.344;14.518;2023-04-15T02:37:51;99687.69;;;10.66;100.00
13695;BME280;6919;52.344;14.518;2023-04-15T02:40:20;99685.91;;;10.58;100.00
13695;BME280;6919;52.344;14.518;2023-04-15T02:42:48;99688.50;;;10.74;100.00
13695;BME280;6919;52.344;14.518;2023-04-15T02:45:16;99689.97;;;10.77;100.00
13695;BME280;6919;52.344;14.518;2023-04-15T02:47:46;99686.63;;;10.75;100.00
13695;BME280;6919;52.344;14.518;2023-04-15T02:50:16;99689.69;;;10.72;100.00
13695;BME280;6919;52.344;14.518;2023-04-15T02:52:44;99684.53;;;10.62;100.00
13695;BME280;6919;52.344;14.518;2023-04-15T02:55:13;99686.44;;;10.76;100.00
13695;BME280;6919;52.344;14.518;2023-04-15T02:57:41;99686.81;;;10.73;100.00
13695;BME280;6919;52.344;14.518;2023-04-15T03:00:11;99686.69;;;10.67;100.00
13695;BME280;6919;52.344;14.518;2023-04-15T03:02:39;99683.94;;;10.52;100.00
13695;BME280;6919;52.344;14.518;2023-04-15T03:05:12;99690.47;;;10.50;100.00
13695;BME280;6919;52.344;14.518;2023-04-15T03:07:41;99698.44;;;10.66;100.00
13695;BME280;6919;52.344;14.518;2023-04-15T03:10:10;99691.09;;;10.60;100.00
13695;BME280;6919;52.344;14.518;2023-04-15T03:12:38;99697.41;;;10.67;100.00
13695;BME280;6919;52.344;14.518;2023-04-15T03:15:08;99687.88;;;10.64;100.00
13695;BME280;6919;52.344;14.518;2023-04-15T03:17:37;99692.09;;;10.59;100.00
13695;BME280;6919;52.344;14.518;2023-04-15T03:20:06;99694.78;;;10.59;100.00
13695;BME280;6919;52.344;14.518;2023-04-15T03:22:35;99693.75;;;10.60;100.00
13695;BME280;6919;52.344;14.518;2023-04-15T03:25:06;99692.63;;;10.54;100.00
13695;BME280;6919;52.344;14.518;2023-04-15T03:27:34;99689.78;;;10.56;100.00
13695;BME280;6919;52.344;14.518;2023-04-15T03:30:02;99695.34;;;10.46;100.00
13695;BME280;6919;52.344;14.518;2023-04-15T03:32:32;99689.47;;;10.51;100.00
13695;BME280;6919;52.344;14.518;2023-04-15T03:35:00;99694.28;;;10.55;100.00
13695;BME280;6919;52.344;14.518;2023-04-15T03:37:29;99684.00;;;10.36;100.00
13695;BME280;6919;52.344;14.518;2023-04-15T03:39:57;99685.72;;;10.29;100.00
13695;BME280;6919;52.344;14.518;2023-04-15T03:42:27;99684.69;;;10.30;100.00
13695;BME280;6919;52.344;14.518;2023-04-15T03:44:55;99687.72;;;10.27;100.00
13695;BME280;6919;52.344;14.518;2023-04-15T03:47:23;99687.22;;;10.32;100.00
13695;BME280;6919;52.344;14.518;2023-04-15T03:49:51;99681.22;;;10.30;100.00
13695;BME280;6919;52.344;14.518;2023-04-15T03:52:19;99690.44;;;10.19;100.00
13695;BME280;6919;52.344;14.518;2023-04-15T03:54:48;99691.44;;;10.26;100.00
13695;BME280;6919;52.344;14.518;2023-04-15T03:57:16;99689.25;;;10.22;100.00
13695;BME280;6919;52.344;14.518;2023-04-15T03:59:46;99685.03;;;10.27;100.00
13695;BME280;6919;52.344;14.518;2023-04-15T04:02:14;99688.28;;;10.23;100.00
13695;BME280;6919;52.344;14.518;2023-04-15T04:04:42;99690.41;;;10.27;100.00
13695;BME280;6919;52.344;14.518;2023-04-15T04:07:15;99688.78;;;10.18;100.00
13695;BME280;6919;52.344;14.518;2023-04-15T04:09:44;99686.41;;;10.31;100.00
13695;BME280;6919;52.344;14.518;2023-04-15T04:12:14;99693.09;;;10.27;100.00
13695;BME280;6919;52.344;14.518;2023-04-15T04:14:43;99692.63;;;10.24;100.00
13695;BME280;6919;52.344;14.518;2023-04-15T04:17:13;99694.59;;;10.30;100.00
13695;BME280;6919;52.344;14.518;2023-04-15T04:19:41;99694.09;;;10.26;100.00
13695;BME280;6919;52.344;14.518;2023-04-15T04:22:09;99698.28;;;10.29;100.00
13695;BME280;6919;52.344;14.518;2023-04-15T04:24:38;99697.47;;;10.28;100.00
13695;BME280;6919;52.344;14.518;2023-04-15T04:27:06;99703.47;;;10.30;100.00
13695;BME280;6919;52.344;14.518;2023-04-15T04:29:34;99703.16;;;10.25;100.00
13695;BME280;6919;52.344;14.518;2023-04-15T04:32:03;99699.16;;;10.21;100.00
13695;BME280;6919;52.344;14.518;2023-04-15T04:34:32;99699.97;;;10.22;100.00
13695;BME280;6919;52.344;14.518;2023-04-15T04:37:01;99703.34;;;10.24;100.00
13695;BME280;6919;52.344;14.518;2023-04-15T04:39:29;99703.28;;;10.32;100.00
13695;BME280;6919;52.344;14.518;2023-04-15T04:41:58;99710.69;;;10.30;100.00
13695;BME280;6919;52.344;14.518;2023-04-15T04:44:27;99708.16;;;10.28;100.00
13695;BME280;6919;52.344;14.518;2023-04-15T04:46:55;99703.81;;;10.27;100.00
13695;BME280;6919;52.344;14.518;2023-04-15T04:49:23;99706.00;;;10.24;100.00
13695;BME280;6919;52.344;14.518;2023-04-15T04:51:53;99707.16;;;10.29;100.00
13695;BME280;6919;52.344;14.518;2023-04-15T04:54:22;99699.00;;;10.23;100.00
13695;BME280;6919;52.344;14.518;2023-04-15T04:56:50;99701.97;;;10.28;100.00
13695;BME280;6919;52.344;14.518;2023-04-15T04:59:19;99704.59;;;10.36;100.00
13695;BME280;6919;52.344;14.518;2023-04-15T05:01:47;99696.09;;;10.32;100.00
13695;BME280;6919;52.344;14.518;2023-04-15T05:04:16;99697.41;;;10.36;100.00
13695;BME280;6919;52.344;14.518;2023-04-15T05:06:44;99700.44;;;10.33;100.00
13695;BME280;6919;52.344;14.518;2023-04-15T05:09:14;99697.41;;;10.36;100.00
13695;BME280;6919;52.344;14.518;2023-04-15T05:11:42;99694.78;;;10.20;100.00
13695;BME280;6919;52.344;14.518;2023-04-15T05:14:11;99706.31;;;10.29;100.00
13695;BME280;6919;52.344;14.518;2023-04-15T05:16:39;99704.78;;;10.34;100.00
13695;BME280;6919;52.344;14.518;2023-04-15T05:19:08;99699.75;;;10.39;100.00
13695;BME280;6919;52.344;14.518;2023-04-15T05:21:36;99695.00;;;10.49;100.00
13695;BME280;6919;52.344;14.518;2023-04-15T05:24:05;99704.88;;;10.49;100.00
13695;BME280;6919;52.344;14.518;2023-04-15T05:26:35;99698.78;;;10.32;100.00
13695;BME280;6919;52.344;14.518;2023-04-15T05:29:04;99696.41;;;10.37;100.00
13695;BME280;6919;52.344;14.518;2023-04-15T05:31:32;99698.78;;;10.32;100.00
13695;BME280;6919;52.344;14.518;2023-04-15T05:34:01;99713.34;;;10.30;100.00
13695;BME280;6919;52.344;14.518;2023-04-15T05:36:29;99711.66;;;10.37;100.00
13695;BME280;6919;52.344;14.518;2023-04-15T05:38:58;99709.16;;;10.35;100.00
13695;BME280;6919;52.344;14.518;2023-04-15T05:41:27;99720.00;;;10.42;100.00
13695;BME280;6919;52.344;14.518;2023-04-15T05:43:56;99713.66;;;10.35;100.00
13695;BME280;6919;52.344;14.518;2023-04-15T05:46:24;99714.13;;;10.46;100.00
13695;BME280;6919;52.344;14.518;2023-04-15T05:48:53;99716.47;;;10.41;100.00
13695;BME280;6919;52.344;14.518;2023-04-15T05:51:22;99712.63;;;10.44;100.00
13695;BME280;6919;52.344;14.518;2023-04-15T05:53:50;99713.97;;;10.40;100.00
13695;BME280;6919;52.344;14.518;2023-04-15T05:56:19;99724.16;;;10.44;100.00
13695;BME280;6919;52.344;14.518;2023-04-15T05:58:48;99721.13;;;10.47;100.00
13695;BME280;6919;52.344;14.518;2023-04-15T06:01:21;99717.00;;;10.37;100.00
13695;BME280;6919;52.344;14.518;2023-04-15T06:03:49;99724.94;;;10.22;100.00
13695;BME280;6919;52.344;14.518;2023-04-15T06:06:17;99734.16;;;10.20;100.00
13695;BME280;6919;52.344;14.518;2023-04-15T06:08:46;99739.00;;;10.16;100.00
13695;BME280;6919;52.344;14.518;2023-04-15T06:11:14;99739.25;;;10.37;100.00
13695;BME280;6919;52.344;14.518;2023-04-15T06:13:43;99741.97;;;10.29;100.00
13695;BME280;6919;52.344;14.518;2023-04-15T06:16:11;99746.38;;;10.22;100.00
13695;BME280;6919;52.344;14.518;2023-04-15T06:18:41;99746.72;;;10.19;100.00
13695;BME280;6919;52.344;14.518;2023-04-15T06:21:10;99744.53;;;10.23;100.00
13695;BME280;6919;52.344;14.518;2023-04-15T06:23:38;99756.09;;;10.15;100.00
13695;BME280;6919;52.344;14.518;2023-04-15T06:26:09;99757.41;;;10.19;100.00
13695;BME280;6919;52.344;14.518;2023-04-15T06:28:37;99758.47;;;10.10;100.00
13695;BME280;6919;52.344;14.518;2023-04-15T06:31:06;99760.09;;;10.19;100.00
13695;BME280;6919;52.344;14.518;2023-04-15T06:33:34;99757.94;;;10.15;100.00
13695;BME280;6919;52.344;14.518;2023-04-15T06:36:04;99766.66;;;10.09;100.00
13695;BME280;6919;52.344;14.518;2023-04-15T06:38:33;99765.16;;;10.14;100.00
13695;BME280;6919;52.344;14.518;2023-04-15T06:41:02;99760.63;;;10.07;100.00
13695;BME280;6919;52.344;14.518;2023-04-15T06:43:31;99767.66;;;10.08;100.00
13695;BME280;6919;52.344;14.518;2023-04-15T06:45:59;99775.16;;;10.20;100.00
13695;BME280;6919;52.344;14.518;2023-04-15T06:48:28;99775.53;;;10.01;100.00
13695;BME280;6919;52.344;14.518;2023-04-15T06:50:56;99766.66;;;10.09;100.00
13695;BME280;6919;52.344;14.518;2023-04-15T06:53:26;99776.19;;;10.03;100.00
13695;BME280;6919;52.344;14.518;2023-04-15T06:55:55;99781.72;;;10.10;100.00
13695;BME280;6919;52.344;14.518;2023-04-15T06:58:23;99786.56;;;9.98;100.00
13695;BME280;6919;52.344;14.518;2023-04-15T07:00:52;99790.25;;;9.97;100.00
13695;BME280;6919;52.344;14.518;2023-04-15T07:03:20;99790.41;;;10.04;100.00
13695;BME280;6919;52.344;14.518;2023-04-15T07:05:49;99789.38;;;10.29;100.00
13695;BME280;6919;52.344;14.518;2023-04-15T07:08:18;99787.53;;;10.29;100.00
13695;BME280;6919;52.344;14.518;2023-04-15T07:10:48;99788.50;;;10.36;100.00
13695;BME280;6919;52.344;14.518;2023-04-15T07:13:17;99792.59;;;10.24;100.00
13695;BME280;6919;52.344;14.518;2023-04-15T07:15:45;99796.03;;;10.33;100.00
13695;BME280;6919;52.344;14.518;2023-04-15T07:18:14;99806.31;;;10.21;100.00
13695;BME280;6919;52.344;14.518;2023-04-15T07:20:42;99802.44;;;10.24;100.00
13695;BME280;6919;52.344;14.518;2023-04-15T07:23:11;99792.72;;;10.31;100.00
13695;BME280;6919;52.344;14.518;2023-04-15T07:25:39;99804.00;;;10.10;100.00
13695;BME280;6919;52.344;14.518;2023-04-15T07:28:09;99812.66;;;10.20;100.00
13695;BME280;6919;52.344;14.518;2023-04-15T07:30:37;99804.63;;;10.20;100.00
13695;BME280;6919;52.344;14.518;2023-04-15T07:33:06;99814.19;;;10.23;100.00
13695;BME280;6919;52.344;14.518;2023-04-15T07:35:34;99813.69;;;10.19;100.00
13695;BME280;6919;52.344;14.518;2023-04-15T07:38:02;99811.34;;;10.16;100.00
13695;BME280;6919;52.344;14.518;2023-04-15T07:40:31;99819.38;;;10.24;100.00
13695;BME280;6919;52.344;14.518;2023-04-15T07:43:00;99821.84;;;10.34;100.00
13695;BME280;6919;52.344;14.518;2023-04-15T07:45:31;99820.03;;;10.26;100.00
13695;BME280;6919;52.344;14.518;2023-04-15T07:48:00;99815.16;;;10.38;100.00
13695;BME280;6919;52.344;14.518;2023-04-15T07:50:29;99816.53;;;10.26;100.00
13695;BME280;6919;52.344;14.518;2023-04-15T07:52:57;99816.69;;;10.24;100.00
13695;BME280;6919;52.344;14.518;2023-04-15T07:55:26;99813.00;;;10.25;100.00
13695;BME280;6919;52.344;14.518;2023-04-15T07:57:54;99820.69;;;10.20;100.00
13695;BME280;6919;52.344;14.518;2023-04-15T08:00:22;99814.00;;;10.32;100.00
13695;BME280;6919;52.344;14.518;2023-04-15T08:02:52;99822.53;;;10.28;100.00
13695;BME280;6919;52.344;14.518;2023-04-15T08:05:23;99826.72;;;10.30;100.00
13695;BME280;6919;52.344;14.518;2023-04-15T08:07:51;99832.06;;;10.38;100.00
13695;BME280;6919;52.344;14.518;2023-04-15T08:10:20;99835.41;;;10.40;100.00
13695;BME280;6919;52.344;14.518;2023-04-15T08:12:48;99828.53;;;10.38;100.00
13695;BME280;6919;52.344;14.518;2023-04-15T08:15:20;99828.03;;;10.42;100.00
13695;BME280;6919;52.344;14.518;2023-04-15T08:17:48;99829.38;;;10.30;100.00
13695;BME280;6919;52.344;14.518;2023-04-15T08:20:18;99832.53;;;10.42;100.00
13695;BME280;6919;52.344;14.518;2023-04-15T08:22:47;99832.06;;;10.38;100.00
13695;BME280;6919;52.344;14.518;2023-04-15T08:25:18;99837.06;;;10.49;100.00
13695;BME280;6919;52.344;14.518;2023-04-15T08:27:47;99845.81;;;10.35;100.00
13695;BME280;6919;52.344;14.518;2023-04-15T08:30:15;99835.91;;;10.36;100.00
13695;BME280;6919;52.344;14.518;2023-04-15T08:32:45;99842.38;;;10.57;100.00
13695;BME280;6919;52.344;14.518;2023-04-15T08:35:14;99842.72;;;10.54;100.00
13695;BME280;6919;52.344;14.518;2023-04-15T08:37:43;99840.72;;;10.56;100.00
13695;BME280;6919;52.344;14.518;2023-04-15T08:40:12;99847.09;;;10.47;100.00
13695;BME280;6919;52.344;14.518;2023-04-15T08:42:48;99842.91;;;10.53;100.00
13695;BME280;6919;52.344;14.518;2023-04-15T08:45:18;99855.28;;;10.62;100.00
13695;BME280;6919;52.344;14.518;2023-04-15T08:47:51;99854.63;;;10.52;100.00
13695;BME280;6919;52.344;14.518;2023-04-15T08:50:24;99864.31;;;10.61;100.00
13695;BME280;6919;52.344;14.518;2023-04-15T08:52:58;99866.97;;;10.69;100.00
13695;BME280;6919;52.344;14.518;2023-04-15T08:55:32;99868.13;;;10.66;100.00
13695;BME280;6919;52.344;14.518;2023-04-15T08:58:02;99867.97;;;10.68;100.00
13695;BME280;6919;52.344;14.518;2023-04-15T09:00:31;99868.31;;;10.73;100.00
13695;BME280;6919;52.344;14.518;2023-04-15T09:03:00;99874.22;;;10.60;100.00
13695;BME280;6919;52.344;14.518;2023-04-15T09:05:31;99878.19;;;10.72;100.00
13695;BME280;6919;52.344;14.518;2023-04-15T09:08:03;99871.88;;;10.57;100.00
13695;BME280;6919;52.344;14.518;2023-04-15T09:10:32;99880.22;;;10.70;100.00
13695;BME280;6919;52.344;14.518;2023-04-15T09:13:01;99877.75;;;10.53;100.00
13695;BME280;6919;52.344;14.518;2023-04-15T09:15:32;99883.59;;;10.56;100.00
13695;BME280;6919;52.344;14.518;2023-04-15T09:18:00;99882.09;;;10.46;100.00
13695;BME280;6919;52.344;14.518;2023-04-15T09:20:29;99884.09;;;10.60;100.00
13695;BME280;6919;52.344;14.518;2023-04-15T09:22:57;99889.97;;;10.63;100.00
13695;BME280;6919;52.344;14.518;2023-04-15T09:25:28;99882.22;;;10.68;100.00
13695;BME280;6919;52.344;14.518;2023-04-15T09:28:01;99887.91;;;10.65;100.00
13695;BME280;6919;52.344;14.518;2023-04-15T09:30:30;99890.75;;;10.80;100.00
13695;BME280;6919;52.344;14.518;2023-04-15T09:33:00;99886.34;;;10.87;100.00
13695;BME280;6919;52.344;14.518;2023-04-15T09:35:30;99888.41;;;10.77;100.00
13695;BME280;6919;52.344;14.518;2023-04-15T09:38:05;99889.59;;;10.74;100.00
13695;BME280;6919;52.344;14.518;2023-04-15T09:40:37;99896.66;;;10.67;100.00
13695;BME280;6919;52.344;14.518;2023-04-15T09:43:08;99895.25;;;10.79;100.00
13695;BME280;6919;52.344;14.518;2023-04-15T09:45:46;99897.72;;;10.89;100.00
13695;BME280;6919;52.344;14.518;2023-04-15T09:48:18;99901.59;;;10.86;100.00
13695;BME280;6919;52.344;14.518;2023-04-15T09:50:48;99895.56;;;10.92;100.00
13695;BME280;6919;52.344;14.518;2023-04-15T09:53:21;99903.97;;;10.81;100.00
13695;BME280;6919;52.344;14.518;2023-04-15T09:55:53;99908.28;;;10.90;100.00
13695;BME280;6919;52.344;14.518;2023-04-15T09:58:23;99917.69;;;10.86;100.00
13695;BME280;6919;52.344;14.518;2023-04-15T10:00:54;99922.50;;;10.99;100.00
13695;BME280;6919;52.344;14.518;2023-04-15T10:03:26;99920.00;;;10.97;100.00
13695;BME280;6919;52.344;14.518;2023-04-15T10:05:57;99912.75;;;11.06;100.00
13695;BME280;6919;52.344;14.518;2023-04-15T10:08:28;99922.34;;;11.00;100.00
13695;BME280;6919;52.344;14.518;2023-04-15T10:10:58;99920.34;;;11.02;100.00
13695;BME280;6919;52.344;14.518;2023-04-15T10:13:31;99922.16;;;11.02;100.00
13695;BME280;6919;52.344;14.518;2023-04-15T10:16:05;99921.47;;;11.08;100.00
13695;BME280;6919;52.344;14.518;2023-04-15T10:18:43;99928.28;;;11.18;100.00
13695;BME280;6919;52.344;14.518;2023-04-15T10:21:13;99924.97;;;11.08;100.00
13695;BME280;6919;52.344;14.518;2023-04-15T10:23:45;99929.34;;;11.09;100.00
13695;BME280;6919;52.344;14.518;2023-04-15T10:26:16;99939.72;;;11.20;100.00
13695;BME280;6919;52.344;14.518;2023-04-15T10:28:45;99936.31;;;11.26;100.00
13695;BME280;6919;52.344;14.518;2023-04-15T10:31:16;99927.16;;;11.43;100.00
13695;BME280;6919;52.344;14.518;2023-04-15T10:33:47;99932.94;;;11.32;100.00
13695;BME280;6919;52.344;14.518;2023-04-15T10:36:18;99940.28;;;11.38;100.00
13695;BME280;6919;52.344;14.518;2023-04-15T10:38:47;99942.06;;;11.46;100.00
13695;BME280;6919;52.344;14.518;2023-04-15T10:41:19;99940.41;;;11.45;100.00
13695;BME280;6919;52.344;14.518;2023-04-15T10:43:50;99939.63;;;11.36;100.00
13695;BME280;6919;52.344;14.518;2023-04-15T10:46:22;99937.97;;;11.66;100.00
13695;BME280;6919;52.344;14.518;2023-04-15T10:48:52;99939.66;;;11.89;100.00
13695;BME280;6919;52.344;14.518;2023-04-15T10:51:29;99934.19;;;12.06;100.00
13695;BME280;6919;52.344;14.518;2023-04-15T10:53:59;99943.38;;;12.11;100.00
13695;BME280;6919;52.344;14.518;2023-04-15T10:56:30;99939.41;;;12.22;100.00
13695;BME280;6919;52.344;14.518;2023-04-15T10:58:59;99937.84;;;12.27;100.00
13695;BME280;6919;52.344;14.518;2023-04-15T11:01:52;99938.03;;;12.63;100.00
13695;BME280;6919;52.344;14.518;2023-04-15T11:04:53;99932.38;;;12.72;100.00
13695;BME280;6919;52.344;14.518;2023-04-15T11:07:50;99935.63;;;12.68;100.00
13695;BME280;6919;52.344;14.518;2023-04-15T11:10:51;99938.44;;;12.89;100.00
13695;BME280;6919;52.344;14.518;2023-04-15T11:13:27;99937.88;;;12.79;100.00
13695;BME280;6919;52.344;14.518;2023-04-15T11:15:59;99931.44;;;12.65;100.00
13695;BME280;6919;52.344;14.518;2023-04-15T11:18:33;99935.81;;;12.66;100.00
13695;BME280;6919;52.344;14.518;2023-04-15T11:21:05;99939.69;;;12.64;100.00
13695;BME280;6919;52.344;14.518;2023-04-15T11:23:37;99945.56;;;12.82;100.00
13695;BME280;6919;52.344;14.518;2023-04-15T11:26:08;99950.63;;;12.48;100.00
13695;BME280;6919;52.344;14.518;2023-04-15T11:28:42;99957.50;;;12.50;100.00
13695;BME280;6919;52.344;14.518;2023-04-15T11:31:15;99954.09;;;12.56;100.00
13695;BME280;6919;52.344;14.518;2023-04-15T11:33:46;99951.63;;;12.47;100.00
13695;BME280;6919;52.344;14.518;2023-04-15T11:36:23;99939.16;;;12.68;100.00
13695;BME280;6919;52.344;14.518;2023-04-15T11:38:54;99949.66;;;12.78;100.00
13695;BME280;6919;52.344;14.518;2023-04-15T11:41:23;99948.13;;;12.61;100.00
13695;BME280;6919;52.344;14.518;2023-04-15T11:43:53;99948.34;;;12.74;100.00
13695;BME280;6919;52.344;14.518;2023-04-15T11:46:29;99951.31;;;12.93;100.00
13695;BME280;6919;52.344;14.518;2023-04-15T11:48:58;99955.06;;;13.07;100.00
13695;BME280;6919;52.344;14.518;2023-04-15T11:51:32;99953.22;;;13.22;100.00
13695;BME280;6919;52.344;14.518;2023-04-15T11:54:01;99945.41;;;13.41;100.00
13695;BME280;6919;52.344;14.518;2023-04-15T11:56:30;99951.34;;;13.37;100.00
13695;BME280;6919;52.344;14.518;2023-04-15T11:59:00;99950.31;;;13.38;100.00
13695;BME280;6919;52.344;14.518;2023-04-15T12:01:32;99944.84;;;13.31;100.00
13695;BME280;6919;52.344;14.518;2023-04-15T12:04:02;99948.84;;;13.35;100.00
13695;BME280;6919;52.344;14.518;2023-04-15T12:06:38;99946.88;;;13.29;100.00
13695;BME280;6919;52.344;14.518;2023-04-15T12:09:09;99944.75;;;13.39;100.00
13695;BME280;6919;52.344;14.518;2023-04-15T12:11:44;99943.81;;;13.32;100.00
13695;BME280;6919;52.344;14.518;2023-04-15T12:14:23;99949.31;;;13.39;100.00
13695;BME280;6919;52.344;14.518;2023-04-15T12:16:56;99957.16;;;13.55;100.00
13695;BME280;6919;52.344;14.518;2023-04-15T12:19:28;99951.41;;;13.43;100.00
13695;BME280;6919;52.344;14.518;2023-04-15T12:21:59;99952.81;;;13.39;100.00
13695;BME280;6919;52.344;14.518;2023-04-15T12:24:31;99956.19;;;13.41;100.00
13695;BME280;6919;52.344;14.518;2023-04-15T12:27:03;99964.06;;;13.43;100.00
13695;BME280;6919;52.344;14.518;2023-04-15T12:29:35;99961.91;;;13.53;100.00
13695;BME280;6919;52.344;14.518;2023-04-15T12:32:07;99961.63;;;13.62;100.00
13695;BME280;6919;52.344;14.518;2023-04-15T12:34:37;99966.03;;;13.70;100.00
13695;BME280;6919;52.344;14.518;2023-04-15T12:37:08;99964.25;;;13.77;100.00
13695;BME280;6919;52.344;14.518;2023-04-15T12:39:38;99976.31;;;13.81;100.00
13695;BME280;6919;52.344;14.518;2023-04-15T12:42:07;99973.91;;;13.86;100.00
13695;BME280;6919;52.344;14.518;2023-04-15T12:44:38;99972.38;;;13.98;100.00
13695;BME280;6919;52.344;14.518;2023-04-15T12:47:09;99978.28;;;13.87;100.00
13695;BME280;6919;52.344;14.518;2023-04-15T12:49:38;99979.69;;;13.68;100.00
13695;BME280;6919;52.344;14.518;2023-04-15T12:52:07;99980.00;;;13.59;100.00
13695;BME280;6919;52.344;14.518;2023-04-15T12:54:35;99983.66;;;13.51;100.00
13695;BME280;6919;52.344;14.518;2023-04-15T12:57:05;99988.66;;;13.54;100.00
13695;BME280;6919;52.344;14.518;2023-04-15T12:59:34;99989.38;;;13.63;100.00
13695;BME280;6919;52.344;14.518;2023-04-15T13:02:03;99985.09;;;13.68;100.00
13695;BME280;6919;52.344;14.518;2023-04-15T13:04:32;99993.94;;;13.62;100.00